Situação meteorológica que não inspira cuidado.   -   Não há avisos

Nearby METAR Reports

 

LEZL - Sevilla, Spain
Distance from station: ENE 8km
Actualizado: 19/07/2018 07:00
Céu limpo
Céu limpo
 Vento de ENE
Vento: ENE 4 km/h
Temperatura: 17°C
Ponto de Orvalho: 15°C
Humidade: 88%
Barómetro: 1015 hPa
Resumo: Céu limpo
Visibility: greater than 10 km
2018/07/19 05:00 LEZL 190500Z 06002KT CAVOK 17/15 Q1015 NOSIG
LEMO - Morón, Spain
Distance from station: SE 43km
Actualizado: 19/07/2018 07:00
Céu limpo
Céu limpo
 Vento de SE
Vento: SE 4 km/h
Temperatura: 15°C
Ponto de Orvalho: 11°C
Humidade: 77%
Barómetro: 1015 hPa
Resumo: Céu limpo
Visibility: greater than 10 km
2018/07/19 05:00 LEMO 190500Z 13002KT CAVOK 15/11 Q1015 NOSIG
LEJR - Jeréz, Spain
Distance from station: S 71km
Actualizado: 19/07/2018 07:00
Céu limpo
Céu limpo
 Vento de calm
Vento: Calmo
Temperatura: 15°C
Ponto de Orvalho: 14°C
Humidade: 94%
Barómetro: 1015 hPa
Resumo: Céu limpo
Visibility: greater than 10 km
2018/07/19 05:00 LEJR 190500Z 00000KT CAVOK 15/14 Q1015
 
LERT - Rota, Spain
Distance from station: SSW 89km
Actualizado: 19/07/2018 07:00
Muito nublado
Muito nublado
 Vento de varies
Vento: varies 2 km/h
Temperatura: 17°C
Ponto de Orvalho: 16°C
Humidade: 94%
Barómetro: 1015 hPa
Clouds: Muito nublado
Visibility: 8 km
Cloud details: Muito nublado 244 m
2018/07/19 05:00 LERT 190500Z VRB01KT 8000 BKN008 17/16 Q1015 NOSIG
LEMG - Málaga, Spain
Distance from station: ESE 157km
Actualizado: 19/07/2018 07:00
Céu limpo
Céu limpo
 Vento de varies
Vento: varies 4 km/h
Temperatura: 21°C
Ponto de Orvalho: 16°C
Humidade: 73%
Barómetro: 1015 hPa
Resumo: Céu limpo
Visibility: greater than 10 km
2018/07/19 05:00 LEMG 190500Z VRB02KT CAVOK 21/16 Q1015 NOSIG
LEBA - Córdoba, Spain
Distance from station: ENE 115km
Actualizado: 19/07/2018 07:00
Céu limpo
Céu limpo
 Vento de S
Vento: S 6 km/h
Temperatura: 18°C
Ponto de Orvalho: 13°C
Humidade: 73%
Barómetro: 1015 hPa
Clouds: Céu limpo
Visibility: 10 km
2018/07/19 05:00 LEBA 190500Z AUTO 19003KT 9999 NCD 18/13 Q1015
 
LEGR - Granada, Spain
Distance from station: E 198km
Actualizado: 19/07/2018 07:00
Céu limpo
Céu limpo
 Vento de WSW
Vento: WSW 6 km/h
Temperatura: 17°C
Ponto de Orvalho: 9°C
Humidade: 59%
Barómetro: 1017 hPa
Resumo: Céu limpo
Visibility: greater than 10 km
2018/07/19 05:00 LEGR 190500Z 24003KT CAVOK 17/09 Q1017
LEAM - Almería, Spain
Distance from station: E 326km
Actualizado: 19/07/2018 07:00
Céu limpo
Céu limpo
 Vento de W
Vento: W 6 km/h
Temperatura: 23°C
Ponto de Orvalho: 20°C
Humidade: 83%
Barómetro: 1014 hPa
Resumo: Céu limpo
Visibility: greater than 10 km
2018/07/19 05:00 LEAM 190500Z 26003KT 200V320 CAVOK 23/20 Q1014
LEMD - Madrid/Barajas, Spain
Distance from station: NNE 402km
Actualizado: 19/07/2018 07:00
Céu limpo
Céu limpo
 Vento de N
Vento: N 6 km/h
Temperatura: 16°C
Ponto de Orvalho: 8°C
Humidade: 59%
Barómetro: 1016 hPa
Resumo: Céu limpo
Visibility: greater than 10 km
2018/07/19 05:00 LEMD 190500Z 35003KT CAVOK 16/08 Q1016 NOSIG
 
LEVD - Valladolid, Spain
Distance from station: N 492km
Actualizado: 19/07/2018 07:00
Nevoeiro, Parcialmente nublado
Nevoeiro, Parcialmente nublado
 Vento de varies
Vento: varies 2 km/h
Temperatura: 13°C
Ponto de Orvalho: 12°C
Humidade: 94%
Barómetro: 1017 hPa
Resumo: Nevoeiro
Clouds: Parcialmente nublado
Visibility: 1 km
2018/07/19 05:00 LEVD 190500Z VRB01KT 0500 R23/P2000 FG NSC 13/12 Q1017
LEBL - Barcelona, Spain
Distance from station: NE 816km
Actualizado: 19/07/2018 07:00
Céu limpo
Céu limpo
 Vento de NNW
Vento: NNW 13 km/h
Temperatura: 22°C
Ponto de Orvalho: 17°C
Humidade: 73%
Barómetro: 1014 hPa
Resumo: Céu limpo
Visibility: greater than 10 km
2018/07/19 05:00 LEBL 190500Z 33007KT CAVOK 22/17 Q1014 NOSIG
LEVC - Valencia, Spain
Distance from station: ENE 535km
Actualizado: 19/07/2018 07:00
Few Clouds
Few Clouds
 Vento de varies
Vento: varies 4 km/h
Temperatura: 22°C
Ponto de Orvalho: 19°C
Humidade: 83%
Barómetro: 1014 hPa
Clouds: Few Clouds
Visibility: 10 km
Cloud details: Few Clouds 1219 m
2018/07/19 05:00 LEVC 190500Z VRB02KT 9999 FEW040 22/19 Q1014 NOSIG